Powell, Ohio
Current Conditions -  °F | °C
As of 10:14 AM on Wednesday 22 Oct 2014 (Local Time) from KOSU Reporting Station
Overcast Overcast  
Wind Chill: 42°   Ceiling: 1300
Heat Index: 47°   Visibility: 10mi
Dew Point: 41°   Wind: 10mph
Humidity: 80%   Direction: 360°N
Pressure: 30.26"   Gusts: NA
Location:  40.16°N, 83.08°W
Report Text: KOSU 221414Z 36009KT 10SM OVC013 08/05 A3026 RMK AO2 T00830050
Loading
Personal Weather Stations






























Interactive Weather Map
Tropical Storm Tracking
New forecast layout! Learn more

10-Day Weather Forecast

Advertisements
Track Severe Weather on mobile